IGO6209 VOMM-VOBL
Flight info
| Callsign | IGO6209 |
|---|---|
| Flight time | 0h 34m |
| Altitude | 20000 |
| Route | MMV W117 BIA |
| Aircraft | A320/M-SDE3FGHIRWY/LB1 |
Departure
| Time | 2026-04-24 11:50 |
|---|---|
| Airport | Chennai International Airport (VOMM) |
Arrival
| Time | 2026-04-24 12:25 |
|---|---|
| Airport | Kempegowda International Airport Bengaluru (VOBL) |
| Time | Latitude | Longitude | Altitude | Speed | Heading |
|---|---|---|---|---|---|
| 2026-04-24 11:24 | 12.98449 | 80.16566 | 52 ft | 0 kts | 159° |
| 2026-04-24 11:43 | 12.98455 | 80.16563 | 50 ft | 4 kts | 159° |
| 2026-04-24 11:43 | 12.98480 | 80.16554 | 50 ft | 4 kts | 167° |
| 2026-04-24 11:43 | 12.98504 | 80.16554 | 48 ft | 4 kts | 214° |
| 2026-04-24 11:44 | 12.98520 | 80.16574 | 47 ft | 3 kts | 249° |
| 2026-04-24 11:44 | 12.98521 | 80.16577 | 47 ft | 0 kts | 249° |
| 2026-04-24 11:46 | 12.98519 | 80.16572 | 47 ft | 2 kts | 249° |
| 2026-04-24 11:46 | 12.98513 | 80.16554 | 49 ft | 5 kts | 249° |
| 2026-04-24 11:46 | 12.98494 | 80.16502 | 53 ft | 10 kts | 249° |
| 2026-04-24 11:47 | 12.98464 | 80.16420 | 55 ft | 14 kts | 249° |
| 2026-04-24 11:47 | 12.98423 | 80.16310 | 52 ft | 19 kts | 249° |
| 2026-04-24 11:47 | 12.98375 | 80.16172 | 53 ft | 22 kts | 250° |
| 2026-04-24 11:47 | 12.98315 | 80.16015 | 55 ft | 25 kts | 247° |
| 2026-04-24 11:48 | 12.98306 | 80.15851 | 55 ft | 21 kts | 285° |
| 2026-04-24 11:48 | 12.98349 | 80.15690 | 55 ft | 25 kts | 285° |
| 2026-04-24 11:48 | 12.98386 | 80.15556 | 56 ft | 0 kts | 285° |
| 2026-04-24 11:48 | 12.98389 | 80.15548 | 50 ft | 3 kts | 285° |
| 2026-04-24 11:49 | 12.98398 | 80.15510 | 56 ft | 8 kts | 285° |
| 2026-04-24 11:49 | 12.98438 | 80.15452 | 53 ft | 13 kts | 347° |
| 2026-04-24 11:49 | 12.98496 | 80.15512 | 53 ft | 14 kts | 69° |
| 2026-04-24 11:49 | 12.98563 | 80.15689 | 50 ft | 57 kts | 69° |
| 2026-04-24 11:50 | 12.98790 | 80.16295 | 54 ft | 121 kts | 69° |
| 2026-04-24 11:50 | 12.99148 | 80.17255 | 53 ft | 166 kts | 70° |
| 2026-04-24 11:50 | 12.99573 | 80.18387 | 621 ft | 161 kts | 72° |
| 2026-04-24 11:50 | 12.99950 | 80.19441 | 1297 ft | 157 kts | 73° |
| 2026-04-24 11:51 | 13.00344 | 80.20502 | 1809 ft | 166 kts | 74° |
| 2026-04-24 11:51 | 13.00785 | 80.21667 | 1996 ft | 186 kts | 71° |
| 2026-04-24 11:51 | 13.01647 | 80.22777 | 2153 ft | 218 kts | 31° |
| 2026-04-24 11:51 | 13.03178 | 80.23097 | 2410 ft | 241 kts | 347° |
| 2026-04-24 11:52 | 13.04683 | 80.22279 | 2772 ft | 257 kts | 308° |
| 2026-04-24 11:52 | 13.05539 | 80.20624 | 3177 ft | 273 kts | 280° |
| 2026-04-24 11:52 | 13.05883 | 80.18699 | 3862 ft | 279 kts | 275° |
| 2026-04-24 11:52 | 13.06099 | 80.16693 | 4595 ft | 287 kts | 275° |
| 2026-04-24 11:53 | 13.06321 | 80.14652 | 5475 ft | 288 kts | 277° |
| 2026-04-24 11:53 | 13.06593 | 80.12601 | 6299 ft | 293 kts | 279° |
| 2026-04-24 11:53 | 13.06921 | 80.10519 | 7051 ft | 297 kts | 281° |
| 2026-04-24 11:53 | 13.07288 | 80.08423 | 7875 ft | 300 kts | 282° |
| 2026-04-24 11:54 | 13.07684 | 80.06306 | 8658 ft | 304 kts | 283° |
| 2026-04-24 11:54 | 13.08096 | 80.04162 | 9442 ft | 309 kts | 283° |
| 2026-04-24 11:54 | 13.08515 | 80.02017 | 9970 ft | 323 kts | 283° |
| 2026-04-24 11:54 | 13.08969 | 79.99712 | 10201 ft | 345 kts | 283° |
| 2026-04-24 11:55 | 13.09456 | 79.97231 | 10717 ft | 355 kts | 283° |
| 2026-04-24 11:55 | 13.09940 | 79.94730 | 11414 ft | 358 kts | 283° |
| 2026-04-24 11:55 | 13.10424 | 79.92211 | 12132 ft | 361 kts | 283° |
| 2026-04-24 11:55 | 13.10910 | 79.89673 | 12864 ft | 364 kts | 283° |
| 2026-04-24 11:56 | 13.11399 | 79.87115 | 13600 ft | 367 kts | 283° |
| 2026-04-24 11:56 | 13.11884 | 79.84567 | 14210 ft | 370 kts | 283° |
| 2026-04-24 11:56 | 13.12386 | 79.81928 | 14830 ft | 374 kts | 282° |
| 2026-04-24 11:56 | 13.12887 | 79.79296 | 15412 ft | 378 kts | 282° |
| 2026-04-24 11:57 | 13.13394 | 79.76633 | 16022 ft | 382 kts | 282° |
| 2026-04-24 11:57 | 13.13901 | 79.73955 | 16632 ft | 385 kts | 281° |
| 2026-04-24 11:57 | 13.14424 | 79.71195 | 16776 ft | 403 kts | 281° |
| 2026-04-24 11:57 | 13.14964 | 79.68357 | 16925 ft | 419 kts | 281° |
| 2026-04-24 11:58 | 13.15541 | 79.65337 | 17176 ft | 432 kts | 281° |
| 2026-04-24 11:58 | 13.16121 | 79.62304 | 17667 ft | 437 kts | 281° |
| 2026-04-24 11:58 | 13.16702 | 79.59263 | 18152 ft | 441 kts | 280° |
| 2026-04-24 11:58 | 13.17296 | 79.56128 | 18653 ft | 443 kts | 280° |
| 2026-04-24 11:59 | 13.17887 | 79.53010 | 19130 ft | 445 kts | 280° |
| 2026-04-24 11:59 | 13.18482 | 79.49883 | 19585 ft | 448 kts | 279° |
| 2026-04-24 11:59 | 13.19070 | 79.46790 | 19760 ft | 448 kts | 280° |
| 2026-04-24 11:59 | 13.19668 | 79.43649 | 19804 ft | 448 kts | 280° |
| 2026-04-24 12:00 | 13.20273 | 79.40466 | 19823 ft | 448 kts | 280° |
| 2026-04-24 12:00 | 13.20864 | 79.37336 | 19827 ft | 448 kts | 280° |
| 2026-04-24 12:00 | 13.21446 | 79.34245 | 19824 ft | 446 kts | 280° |
| 2026-04-24 12:00 | 13.22037 | 79.31115 | 19831 ft | 447 kts | 280° |
| 2026-04-24 12:01 | 13.22627 | 79.27985 | 19828 ft | 448 kts | 279° |
| 2026-04-24 12:01 | 13.23226 | 79.24808 | 19833 ft | 448 kts | 279° |
| 2026-04-24 12:01 | 13.23816 | 79.21671 | 19839 ft | 448 kts | 279° |
| 2026-04-24 12:01 | 13.24398 | 79.18584 | 19843 ft | 447 kts | 280° |
| 2026-04-24 12:02 | 13.24988 | 79.15453 | 19844 ft | 447 kts | 279° |
| 2026-04-24 12:02 | 13.25578 | 79.12325 | 19856 ft | 447 kts | 280° |
| 2026-04-24 12:02 | 13.26171 | 79.09191 | 19854 ft | 447 kts | 279° |
| 2026-04-24 12:02 | 13.26764 | 79.06063 | 19858 ft | 447 kts | 279° |
| 2026-04-24 12:03 | 13.27355 | 79.02934 | 19855 ft | 446 kts | 280° |
| 2026-04-24 12:03 | 13.27943 | 78.99809 | 19872 ft | 445 kts | 279° |
| 2026-04-24 12:03 | 13.28526 | 78.96690 | 19887 ft | 445 kts | 280° |
| 2026-04-24 12:03 | 13.29106 | 78.93571 | 19886 ft | 445 kts | 278° |
| 2026-04-24 12:04 | 13.29336 | 78.90419 | 19884 ft | 442 kts | 267° |
| 2026-04-24 12:04 | 13.29122 | 78.87274 | 19881 ft | 441 kts | 264° |
| 2026-04-24 12:04 | 13.28890 | 78.84136 | 19883 ft | 441 kts | 263° |
| 2026-04-24 12:04 | 13.28660 | 78.80979 | 19888 ft | 430 kts | 264° |
| 2026-04-24 12:05 | 13.28451 | 78.78018 | 19888 ft | 413 kts | 264° |
| 2026-04-24 12:05 | 13.28250 | 78.75139 | 19889 ft | 397 kts | 264° |
| 2026-04-24 12:05 | 13.28052 | 78.72345 | 19890 ft | 389 kts | 264° |
| 2026-04-24 12:05 | 13.27852 | 78.69581 | 19885 ft | 388 kts | 264° |
| 2026-04-24 12:06 | 13.27649 | 78.66824 | 19900 ft | 386 kts | 263° |
| 2026-04-24 12:06 | 13.27559 | 78.64073 | 19902 ft | 386 kts | 270° |
| 2026-04-24 12:06 | 13.27639 | 78.61313 | 19896 ft | 386 kts | 270° |
| 2026-04-24 12:06 | 13.27752 | 78.58570 | 19858 ft | 381 kts | 270° |
| 2026-04-24 12:07 | 13.27880 | 78.55845 | 19553 ft | 374 kts | 270° |
| 2026-04-24 12:07 | 13.28003 | 78.53230 | 19250 ft | 369 kts | 270° |
| 2026-04-24 12:07 | 13.28120 | 78.50620 | 18965 ft | 364 kts | 270° |
| 2026-04-24 12:07 | 13.28231 | 78.48037 | 18674 ft | 360 kts | 271° |
| 2026-04-24 12:08 | 13.28336 | 78.45481 | 18385 ft | 358 kts | 270° |
| 2026-04-24 12:08 | 13.28438 | 78.42942 | 18084 ft | 355 kts | 271° |
| 2026-04-24 12:08 | 13.28537 | 78.40411 | 17749 ft | 354 kts | 271° |
| 2026-04-24 12:08 | 13.28635 | 78.37887 | 17434 ft | 352 kts | 271° |
| 2026-04-24 12:09 | 13.28735 | 78.35377 | 17103 ft | 351 kts | 271° |
| 2026-04-24 12:09 | 13.28838 | 78.32879 | 16773 ft | 350 kts | 272° |
| 2026-04-24 12:09 | 13.28941 | 78.30397 | 16459 ft | 347 kts | 272° |
| 2026-04-24 12:09 | 13.29042 | 78.27930 | 16143 ft | 345 kts | 272° |
| 2026-04-24 12:10 | 13.29141 | 78.25479 | 15828 ft | 342 kts | 272° |
| 2026-04-24 12:10 | 13.29237 | 78.23043 | 15519 ft | 341 kts | 272° |
| 2026-04-24 12:10 | 13.29330 | 78.20620 | 15218 ft | 339 kts | 273° |
| 2026-04-24 12:11 | 13.29515 | 78.15804 | 14730 ft | 337 kts | 273° |
| 2026-04-24 12:11 | 13.29608 | 78.13412 | 14429 ft | 334 kts | 273° |
| 2026-04-24 12:11 | 13.29702 | 78.11034 | 14132 ft | 332 kts | 274° |
| 2026-04-24 12:11 | 13.29794 | 78.08674 | 13866 ft | 330 kts | 274° |
| 2026-04-24 12:12 | 13.29874 | 78.06546 | 13604 ft | 329 kts | 274° |
| 2026-04-24 12:12 | 13.29961 | 78.04199 | 13301 ft | 328 kts | 274° |
| 2026-04-24 12:12 | 13.30050 | 78.01862 | 13003 ft | 328 kts | 275° |
| 2026-04-24 12:12 | 13.30144 | 77.99530 | 12700 ft | 326 kts | 274° |
| 2026-04-24 12:13 | 13.30238 | 77.97205 | 12404 ft | 325 kts | 274° |
| 2026-04-24 12:13 | 13.30330 | 77.94892 | 12114 ft | 324 kts | 273° |
| 2026-04-24 12:13 | 13.30421 | 77.92588 | 11818 ft | 321 kts | 273° |
| 2026-04-24 12:13 | 13.30509 | 77.90311 | 11532 ft | 319 kts | 273° |
| 2026-04-24 12:14 | 13.30597 | 77.88046 | 11239 ft | 316 kts | 274° |
| 2026-04-24 12:14 | 13.30684 | 77.85801 | 10959 ft | 314 kts | 273° |
| 2026-04-24 12:14 | 13.30768 | 77.83566 | 10678 ft | 312 kts | 272° |
| 2026-04-24 12:14 | 13.30852 | 77.81346 | 10399 ft | 310 kts | 273° |
| 2026-04-24 12:15 | 13.30933 | 77.79166 | 10146 ft | 309 kts | 273° |
| 2026-04-24 12:15 | 13.31009 | 77.76946 | 9870 ft | 307 kts | 272° |
| 2026-04-24 12:15 | 13.31046 | 77.74761 | 9574 ft | 305 kts | 271° |
| 2026-04-24 12:15 | 13.31059 | 77.72622 | 9282 ft | 304 kts | 271° |
| 2026-04-24 12:16 | 13.31066 | 77.70460 | 8981 ft | 303 kts | 271° |
| 2026-04-24 12:16 | 13.31073 | 77.68297 | 8688 ft | 302 kts | 270° |
| 2026-04-24 12:16 | 13.31082 | 77.66146 | 8398 ft | 301 kts | 270° |
| 2026-04-24 12:16 | 13.31095 | 77.63999 | 8106 ft | 300 kts | 270° |
| 2026-04-24 12:17 | 13.31109 | 77.61903 | 7817 ft | 288 kts | 270° |
| 2026-04-24 12:17 | 13.31122 | 77.59888 | 7534 ft | 276 kts | 270° |
| 2026-04-24 12:17 | 13.31136 | 77.57956 | 7253 ft | 266 kts | 270° |
| 2026-04-24 12:17 | 13.31150 | 77.56089 | 6978 ft | 258 kts | 270° |
| 2026-04-24 12:18 | 13.31164 | 77.54250 | 6712 ft | 257 kts | 270° |
| 2026-04-24 12:18 | 13.31179 | 77.52418 | 6437 ft | 256 kts | 270° |
| 2026-04-24 12:18 | 13.31192 | 77.50595 | 6152 ft | 255 kts | 270° |
| 2026-04-24 12:18 | 13.31139 | 77.48822 | 6003 ft | 239 kts | 256° |
| 2026-04-24 12:19 | 13.30435 | 77.47383 | 6002 ft | 217 kts | 220° |
| 2026-04-24 12:19 | 13.29161 | 77.46658 | 6017 ft | 209 kts | 188° |
| 2026-04-24 12:19 | 13.27733 | 77.46465 | 6016 ft | 205 kts | 180° |
| 2026-04-24 12:19 | 13.26312 | 77.46385 | 6019 ft | 204 kts | 175° |
| 2026-04-24 12:20 | 13.24999 | 77.46783 | 6015 ft | 196 kts | 139° |
| 2026-04-24 12:20 | 13.24107 | 77.47817 | 6021 ft | 194 kts | 122° |
| 2026-04-24 12:20 | 13.23386 | 77.48994 | 6052 ft | 195 kts | 119° |
| 2026-04-24 12:20 | 13.22705 | 77.50181 | 6020 ft | 192 kts | 119° |
| 2026-04-24 12:21 | 13.22032 | 77.51367 | 6016 ft | 192 kts | 118° |
| 2026-04-24 12:21 | 13.21354 | 77.52550 | 6024 ft | 193 kts | 119° |
| 2026-04-24 12:21 | 13.20853 | 77.53817 | 5894 ft | 193 kts | 98° |
| 2026-04-24 12:21 | 13.20806 | 77.55211 | 5509 ft | 197 kts | 90° |
| 2026-04-24 12:22 | 13.20808 | 77.56600 | 5221 ft | 190 kts | 90° |
| 2026-04-24 12:22 | 13.20802 | 77.57898 | 4980 ft | 173 kts | 91° |
| 2026-04-24 12:22 | 13.20794 | 77.59079 | 4786 ft | 160 kts | 90° |
| 2026-04-24 12:22 | 13.20786 | 77.60181 | 4604 ft | 149 kts | 91° |
| 2026-04-24 12:23 | 13.20777 | 77.61230 | 4411 ft | 145 kts | 92° |
| 2026-04-24 12:23 | 13.20769 | 77.62254 | 4239 ft | 142 kts | 92° |
| 2026-04-24 12:23 | 13.20760 | 77.63271 | 4053 ft | 141 kts | 91° |
| 2026-04-24 12:23 | 13.20752 | 77.64288 | 3872 ft | 145 kts | 90° |
| 2026-04-24 12:24 | 13.20743 | 77.65312 | 3692 ft | 141 kts | 92° |
| 2026-04-24 12:24 | 13.20734 | 77.66311 | 3490 ft | 139 kts | 88° |
| 2026-04-24 12:24 | 13.20710 | 77.67327 | 3296 ft | 148 kts | 88° |
| 2026-04-24 12:24 | 13.20717 | 77.68362 | 3111 ft | 144 kts | 88° |
| 2026-04-24 12:25 | 13.20724 | 77.69337 | 3013 ft | 121 kts | 90° |
| 2026-04-24 12:25 | 13.20708 | 77.70022 | 3011 ft | 71 kts | 90° |
| 2026-04-24 12:25 | 13.20700 | 77.70399 | 3015 ft | 44 kts | 99° |
| 2026-04-24 12:25 | 13.20594 | 77.70637 | 3011 ft | 32 kts | 124° |
| 2026-04-24 12:26 | 13.20530 | 77.70814 | 3011 ft | 22 kts | 90° |
| 2026-04-24 12:26 | 13.20490 | 77.70883 | 3011 ft | 12 kts | 178° |
| 2026-04-24 12:26 | 13.20412 | 77.70897 | 3011 ft | 6 kts | 181° |
| 2026-04-24 12:26 | 13.20400 | 77.70897 | 3011 ft | 0 kts | 181° |